createdAt,value
2022-10-16T00:01:42.219Z,101344.47
2022-10-16T00:04:09.923Z,101335.19
2022-10-16T00:06:37.377Z,101341.38
2022-10-16T00:09:04.892Z,101343.22
2022-10-16T00:11:34.774Z,101341.50
2022-10-16T00:14:03.659Z,101339.78
2022-10-16T00:16:31.401Z,101346.06
2022-10-16T00:19:01.940Z,101334.50
2022-10-16T00:21:31.137Z,101341.84
2022-10-16T00:24:17.037Z,101341.84
2022-10-16T00:26:44.452Z,101335.09
2022-10-16T00:29:12.251Z,101323.22
2022-10-16T00:31:39.600Z,101343.09
2022-10-16T00:34:07.013Z,101344.72
2022-10-16T00:36:34.523Z,101341.38
2022-10-16T00:39:03.729Z,101341.97
2022-10-16T00:41:32.007Z,101346.22
2022-10-16T00:44:02.885Z,101349.84
2022-10-16T00:46:35.449Z,101353.75
2022-10-16T00:49:06.024Z,101344.25
2022-10-16T00:51:36.491Z,101348.47
2022-10-16T00:54:07.815Z,101355.56
2022-10-16T00:56:38.350Z,101350.53
2022-10-16T00:59:15.248Z,101356.59
2022-10-16T01:01:42.586Z,101347.78
2022-10-16T01:04:10.533Z,101352.34
2022-10-16T01:07:06.785Z,101342.38
2022-10-16T01:10:08.844Z,101349.94
2022-10-16T01:12:48.678Z,101348.69
2022-10-16T01:15:26.348Z,101350.31
2022-10-16T01:18:11.816Z,101353.72
2022-10-16T01:20:48.681Z,101355.31
2022-10-16T01:23:25.223Z,101354.38
2022-10-16T01:26:30.285Z,101347.09
2022-10-16T01:29:10.091Z,101352.63
2022-10-16T01:31:41.900Z,101348.63
2022-10-16T01:34:11.990Z,101354.94
2022-10-16T01:36:49.387Z,101350.31
2022-10-16T01:39:21.822Z,101354.06
2022-10-16T01:41:56.031Z,101354.78
2022-10-16T01:44:31.055Z,101349.75
2022-10-16T01:46:58.924Z,101355.22
2022-10-16T01:49:28.909Z,101354.56
2022-10-16T01:54:35.152Z,101344.38
2022-10-16T01:57:04.907Z,101349.19
2022-10-16T01:59:39.702Z,101343.03
2022-10-16T02:02:10.237Z,101358.81
2022-10-16T02:04:42.001Z,101346.47
2022-10-16T02:07:09.672Z,101357.59
2022-10-16T02:09:37.831Z,101361.28
2022-10-16T02:12:14.962Z,101356.59
2022-10-16T02:14:45.274Z,101358.63
2022-10-16T02:17:15.865Z,101356.81
2022-10-16T02:19:45.993Z,101362.44
2022-10-16T02:22:33.580Z,101362.53
2022-10-16T02:25:45.735Z,101366.66
2022-10-16T02:28:23.579Z,101365.97
2022-10-16T02:31:05.961Z,101356.16
2022-10-16T02:33:35.689Z,101358.41
2022-10-16T02:36:03.686Z,101367.56
2022-10-16T02:38:31.537Z,101363.69
2022-10-16T02:40:59.055Z,101362.09
2022-10-16T02:43:27.435Z,101367.69
2022-10-16T02:45:57.629Z,101369.88
2022-10-16T02:48:24.979Z,101367.78
2022-10-16T02:50:52.330Z,101372.28
2022-10-16T02:53:20.357Z,101365.84
2022-10-16T02:55:47.657Z,101370.66
2022-10-16T02:58:15.119Z,101386.78
2022-10-16T03:00:43.321Z,101386.66
2022-10-16T03:03:11.210Z,101388.38
2022-10-16T03:05:38.608Z,101386.44
2022-10-16T03:08:06.017Z,101387.13
2022-10-16T03:10:33.439Z,101384.63
2022-10-16T03:13:00.906Z,101382.66
2022-10-16T03:15:29.798Z,101386.56
2022-10-16T03:18:01.036Z,101392.63
2022-10-16T03:20:28.411Z,101383.13
2022-10-16T03:22:55.783Z,101380.59
2022-10-16T03:25:23.460Z,101379.94
2022-10-16T03:27:50.922Z,101380.28
2022-10-16T03:30:18.278Z,101383.81
2022-10-16T03:32:46.280Z,101389.31
2022-10-16T03:35:16.324Z,101390.63
2022-10-16T03:37:43.691Z,101385.75
2022-10-16T03:40:11.504Z,101385.28
2022-10-16T03:42:39.025Z,101380.94
2022-10-16T03:45:06.988Z,101384.94
2022-10-16T03:47:34.484Z,101381.75
2022-10-16T03:50:01.809Z,101390.09
2022-10-16T03:52:33.186Z,101391.63
2022-10-16T03:55:00.580Z,101389.19
2022-10-16T03:57:28.531Z,101394.13
2022-10-16T03:59:56.211Z,101393.66
2022-10-16T04:02:23.729Z,101393.56
2022-10-16T04:04:51.141Z,101386.13
2022-10-16T04:07:18.456Z,101379.69
2022-10-16T04:09:45.796Z,101387.84
2022-10-16T04:12:13.194Z,101392.28
2022-10-16T04:14:40.533Z,101405.41
2022-10-16T04:17:07.923Z,101401.50
2022-10-16T04:19:35.358Z,101400.91
2022-10-16T04:22:02.861Z,101410.69
2022-10-16T04:24:30.270Z,101393.28
2022-10-16T04:26:57.787Z,101404.72
2022-10-16T04:29:25.258Z,101399.22
2022-10-16T04:31:52.731Z,101407.47
2022-10-16T04:34:20.069Z,101411.78
2022-10-16T04:36:50.872Z,101415.69
2022-10-16T04:39:18.252Z,101421.97
2022-10-16T04:41:45.617Z,101426.78
2022-10-16T04:44:15.717Z,101421.09
2022-10-16T04:46:43.132Z,101411.03
2022-10-16T04:49:10.466Z,101411.84
2022-10-16T04:51:40.862Z,101426.00
2022-10-16T04:54:08.251Z,101424.41
2022-10-16T04:56:41.125Z,101427.06
2022-10-16T04:59:08.507Z,101429.91
2022-10-16T05:01:38.159Z,101425.34
2022-10-16T05:04:05.732Z,101434.97
2022-10-16T05:06:33.181Z,101430.63
2022-10-16T05:09:00.507Z,101443.25
2022-10-16T05:11:27.826Z,101452.94
2022-10-16T05:13:55.972Z,101445.97
2022-10-16T05:16:23.535Z,101448.47
2022-10-16T05:18:53.154Z,101444.84
2022-10-16T05:21:23.860Z,101439.00
2022-10-16T05:23:51.198Z,101445.19
2022-10-16T05:26:18.557Z,101439.47
2022-10-16T05:28:45.927Z,101445.75
2022-10-16T05:31:13.445Z,101440.72
2022-10-16T05:33:41.942Z,101445.28
2022-10-16T05:36:10.568Z,101452.06
2022-10-16T05:38:38.450Z,101448.50
2022-10-16T05:41:07.136Z,101450.47
2022-10-16T05:43:34.449Z,101444.25
2022-10-16T05:46:06.600Z,101440.72
2022-10-16T05:48:34.413Z,101448.97
2022-10-16T05:51:04.191Z,101460.06
2022-10-16T05:53:34.263Z,101454.56
2022-10-16T05:56:02.251Z,101464.50
2022-10-16T05:58:32.255Z,101461.91
2022-10-16T06:01:03.233Z,101470.63
2022-10-16T06:03:30.647Z,101469.59
2022-10-16T06:05:57.942Z,101470.47
2022-10-16T06:08:25.361Z,101482.28
2022-10-16T06:11:10.149Z,101479.44
2022-10-16T06:13:37.624Z,101485.59
2022-10-16T06:16:05.449Z,101481.25
2022-10-16T06:18:32.937Z,101492.47
2022-10-16T06:21:00.340Z,101492.59
2022-10-16T06:23:29.644Z,101490.50
2022-10-16T06:26:05.773Z,101497.16
2022-10-16T06:28:33.905Z,101501.41
2022-10-16T06:31:05.616Z,101505.06
2022-10-16T06:33:36.841Z,101510.34
2022-10-16T06:36:09.312Z,101503.94
2022-10-16T06:38:37.476Z,101514.91
2022-10-16T06:41:06.573Z,101521.78
2022-10-16T06:43:36.629Z,101519.97
2022-10-16T06:46:06.368Z,101524.31
2022-10-16T06:48:33.734Z,101527.06
2022-10-16T06:51:02.606Z,101533.16
2022-10-16T06:53:39.653Z,101537.50
2022-10-16T06:56:18.167Z,101539.69
2022-10-16T06:58:45.854Z,101546.81
2022-10-16T07:01:14.608Z,101548.16
2022-10-16T07:03:43.623Z,101545.19
2022-10-16T07:06:13.062Z,101563.09
2022-10-16T07:08:43.895Z,101564.44
2022-10-16T07:11:17.043Z,101562.94
2022-10-16T07:13:49.330Z,101570.16
2022-10-16T07:16:22.396Z,101575.44
2022-10-16T07:18:50.478Z,101573.59
2022-10-16T07:21:21.405Z,101585.53
2022-10-16T07:23:52.690Z,101584.38
2022-10-16T07:26:20.086Z,101599.25
2022-10-16T07:28:47.735Z,101592.72
2022-10-16T07:31:16.452Z,101598.34
2022-10-16T07:33:46.147Z,101600.50
2022-10-16T07:36:16.239Z,101609.66
2022-10-16T07:38:47.079Z,101610.81
2022-10-16T07:41:20.081Z,101616.44
2022-10-16T07:43:48.896Z,101617.25
2022-10-16T07:46:17.559Z,101628.03
2022-10-16T07:48:48.031Z,101626.63
2022-10-16T07:51:17.686Z,101623.50
2022-10-16T07:53:45.094Z,101632.69
2022-10-16T07:56:12.867Z,101627.97
2022-10-16T07:58:40.764Z,101624.22
2022-10-16T08:01:11.158Z,101626.63
2022-10-16T08:03:38.643Z,101625.78
2022-10-16T08:06:06.218Z,101625.66
2022-10-16T08:08:33.840Z,101634.81
2022-10-16T08:11:01.216Z,101638.34
2022-10-16T08:13:28.540Z,101645.50
2022-10-16T08:15:56.420Z,101642.66
2022-10-16T08:18:24.093Z,101643.00
2022-10-16T08:20:59.150Z,101641.47
2022-10-16T08:23:27.491Z,101647.31
2022-10-16T08:25:56.045Z,101648.78
2022-10-16T08:28:24.404Z,101639.31
2022-10-16T08:30:51.801Z,101646.81
2022-10-16T08:33:19.231Z,101651.16
2022-10-16T08:35:54.681Z,101642.56
2022-10-16T08:38:22.598Z,101639.47
2022-10-16T08:40:55.438Z,101644.63
2022-10-16T08:43:58.098Z,101646.19
2022-10-16T08:46:53.403Z,101649.31
2022-10-16T08:49:21.094Z,101644.16
2022-10-16T08:51:50.560Z,101647.75
2022-10-16T08:54:21.068Z,101641.19
2022-10-16T08:56:48.417Z,101638.81
2022-10-16T08:59:17.946Z,101639.38
2022-10-16T09:01:48.123Z,101636.28
2022-10-16T09:04:27.398Z,101643.19
2022-10-16T09:07:17.403Z,101641.72
2022-10-16T09:10:03.677Z,101631.91
2022-10-16T09:12:36.743Z,101639.88
2022-10-16T09:15:12.878Z,101637.66
2022-10-16T09:17:48.043Z,101633.41
2022-10-16T09:20:46.058Z,101636.22
2022-10-16T09:23:19.882Z,101646.03
2022-10-16T09:25:50.369Z,101644.03
2022-10-16T09:28:19.511Z,101641.47
2022-10-16T09:30:49.590Z,101633.50
2022-10-16T09:33:20.126Z,101633.47
2022-10-16T09:35:54.012Z,101639.47
2022-10-16T09:38:26.275Z,101639.25
2022-10-16T09:41:02.391Z,101633.00
2022-10-16T09:43:42.850Z,101638.13
2022-10-16T09:46:22.334Z,101638.09
2022-10-16T09:48:52.449Z,101635.88
2022-10-16T09:51:26.510Z,101637.88
2022-10-16T09:54:21.921Z,101635.81
2022-10-16T09:56:54.795Z,101635.88
2022-10-16T09:59:27.746Z,101637.88
2022-10-16T10:01:56.203Z,101633.44
2022-10-16T10:04:26.702Z,101630.69
2022-10-16T10:06:57.270Z,101626.09
2022-10-16T10:09:32.412Z,101635.31
2022-10-16T10:12:05.202Z,101628.09
2022-10-16T10:14:48.750Z,101628.44
2022-10-16T10:17:19.292Z,101630.91
2022-10-16T10:19:57.846Z,101633.94
2022-10-16T10:22:25.522Z,101633.19
2022-10-16T10:25:12.007Z,101629.19
2022-10-16T10:27:57.361Z,101626.16
2022-10-16T10:30:51.308Z,101624.75
2022-10-16T10:33:31.382Z,101627.06
2022-10-16T10:36:09.732Z,101621.94
2022-10-16T10:38:57.581Z,101625.09
2022-10-16T10:41:41.718Z,101631.91
2022-10-16T10:44:38.231Z,101633.88
2022-10-16T10:47:13.834Z,101622.00
2022-10-16T10:49:58.061Z,101617.00
2022-10-16T10:52:51.368Z,101622.38
2022-10-16T10:55:46.702Z,101621.13
2022-10-16T10:58:48.090Z,101619.25
2022-10-16T11:01:19.862Z,101620.38
2022-10-16T11:03:59.428Z,101615.50
2022-10-16T11:06:32.591Z,101610.34
2022-10-16T11:09:37.893Z,101608.38
2022-10-16T11:12:27.222Z,101610.22
2022-10-16T11:15:22.804Z,101621.56
2022-10-16T11:18:02.654Z,101612.09
2022-10-16T11:20:38.714Z,101611.91
2022-10-16T11:23:19.898Z,101607.38
2022-10-16T11:25:49.245Z,101615.22
2022-10-16T11:28:22.081Z,101611.53
2022-10-16T11:31:01.076Z,101615.91
2022-10-16T11:33:38.696Z,101608.72
2022-10-16T11:36:29.695Z,101614.97
2022-10-16T11:39:09.935Z,101608.75
2022-10-16T11:41:51.593Z,101612.72
2022-10-16T11:44:34.170Z,101612.50
2022-10-16T11:47:39.846Z,101601.00
2022-10-16T11:50:42.831Z,101604.53
2022-10-16T11:53:28.565Z,101605.38
2022-10-16T11:55:55.922Z,101608.09
2022-10-16T11:58:23.907Z,101598.28
2022-10-16T12:01:08.284Z,101603.06
2022-10-16T12:03:39.972Z,101601.38
2022-10-16T12:06:44.598Z,101602.41
2022-10-16T12:09:26.803Z,101602.47
2022-10-16T12:11:54.040Z,101603.94
2022-10-16T12:14:30.278Z,101603.75
2022-10-16T12:17:00.780Z,101608.25
2022-10-16T12:19:31.239Z,101610.00
2022-10-16T12:22:04.386Z,101603.28
2022-10-16T12:24:34.467Z,101599.03
2022-10-16T12:27:02.711Z,101601.44
2022-10-16T12:29:37.089Z,101600.91
2022-10-16T12:32:41.839Z,101601.63
2022-10-16T12:35:21.685Z,101614.72
2022-10-16T12:37:49.527Z,101604.47
2022-10-16T12:40:30.741Z,101607.88
2022-10-16T12:42:58.658Z,101596.22
2022-10-16T12:45:30.496Z,101610.50
2022-10-16T12:47:59.130Z,101600.63
2022-10-16T12:50:31.983Z,101604.34
2022-10-16T12:53:01.515Z,101601.88
2022-10-16T12:55:36.366Z,101596.84
2022-10-16T12:58:17.141Z,101601.19
2022-10-16T13:01:06.053Z,101603.94
2022-10-16T13:03:39.429Z,101603.94
2022-10-16T13:06:12.864Z,101600.25
2022-10-16T13:08:45.994Z,101607.44
2022-10-16T13:11:25.598Z,101607.41
2022-10-16T13:14:07.822Z,101612.19
2022-10-16T13:16:50.078Z,101608.22
2022-10-16T13:19:35.821Z,101612.56
2022-10-16T13:22:05.819Z,101613.72
2022-10-16T13:24:47.455Z,101611.28
2022-10-16T13:27:27.392Z,101609.75
2022-10-16T13:30:03.483Z,101607.41
2022-10-16T13:32:32.072Z,101615.72
2022-10-16T13:35:01.215Z,101616.91
2022-10-16T13:37:28.993Z,101614.97
2022-10-16T13:40:29.172Z,101614.13
2022-10-16T13:42:57.113Z,101618.25
2022-10-16T13:45:26.477Z,101619.84
2022-10-16T13:48:10.319Z,101617.75
2022-10-16T13:50:37.676Z,101615.38
2022-10-16T13:53:14.247Z,101622.88
2022-10-16T13:55:41.898Z,101620.47
2022-10-16T13:58:13.719Z,101628.03
2022-10-16T14:00:53.923Z,101620.88
2022-10-16T14:03:21.722Z,101620.00
2022-10-16T14:06:19.309Z,101615.91
2022-10-16T14:08:52.767Z,101621.41
2022-10-16T14:11:27.360Z,101621.38
2022-10-16T14:13:55.703Z,101623.31
2022-10-16T14:16:26.803Z,101630.09
2022-10-16T14:19:12.080Z,101630.47
2022-10-16T14:21:41.866Z,101627.69
2022-10-16T14:24:27.325Z,101626.59
2022-10-16T14:26:57.953Z,101630.47
2022-10-16T14:29:27.554Z,101633.16
2022-10-16T14:31:57.785Z,101636.28
2022-10-16T14:34:36.342Z,101637.88
2022-10-16T14:37:27.844Z,101637.66
2022-10-16T14:39:57.057Z,101636.72
2022-10-16T14:42:26.676Z,101636.72
2022-10-16T14:44:56.487Z,101641.00
2022-10-16T14:47:27.747Z,101643.31
2022-10-16T14:49:57.001Z,101638.56
2022-10-16T14:52:24.428Z,101633.06
2022-10-16T14:54:55.657Z,101623.94
2022-10-16T14:57:31.093Z,101629.09
2022-10-16T14:59:58.547Z,101626.34
2022-10-16T15:02:33.143Z,101625.50
2022-10-16T15:05:12.256Z,101632.63
2022-10-16T15:07:39.627Z,101631.09
2022-10-16T15:10:07.130Z,101620.28
2022-10-16T15:12:34.514Z,101634.22
2022-10-16T15:15:01.944Z,101633.72
2022-10-16T15:17:29.640Z,101638.41
2022-10-16T15:19:59.395Z,101635.59
2022-10-16T15:22:26.985Z,101637.63
2022-10-16T15:24:54.417Z,101645.13
2022-10-16T15:27:21.845Z,101639.50
2022-10-16T15:29:49.199Z,101641.53
2022-10-16T15:32:16.604Z,101644.19
2022-10-16T15:34:43.890Z,101640.50
2022-10-16T15:37:12.949Z,101642.34
2022-10-16T15:39:41.346Z,101646.16
2022-10-16T15:42:08.975Z,101645.31
2022-10-16T15:44:36.314Z,101648.81
2022-10-16T15:47:03.655Z,101647.22
2022-10-16T15:49:30.990Z,101650.72
2022-10-16T15:51:58.643Z,101650.25
2022-10-16T15:54:26.009Z,101648.69
2022-10-16T15:56:53.346Z,101659.63
2022-10-16T15:59:21.838Z,101654.66
2022-10-16T16:01:49.229Z,101664.56
2022-10-16T16:04:42.262Z,101662.16
2022-10-16T16:07:08.236Z,101664.16
2022-10-16T16:09:35.752Z,101658.81
2022-10-16T16:12:03.226Z,101667.78
2022-10-16T16:14:30.559Z,101667.19
2022-10-16T16:16:58.425Z,101669.72
2022-10-16T16:19:25.774Z,101671.19
2022-10-16T16:21:53.197Z,101659.09
2022-10-16T16:24:21.142Z,101672.41
2022-10-16T16:26:48.482Z,101667.13
2022-10-16T16:29:17.066Z,101674.91
2022-10-16T16:31:44.581Z,101669.25
2022-10-16T16:34:12.038Z,101668.03
2022-10-16T16:36:40.931Z,101669.44
2022-10-16T16:39:08.760Z,101670.47
2022-10-16T16:41:37.149Z,101677.47
2022-10-16T16:44:09.646Z,101675.78
2022-10-16T16:46:38.074Z,101672.16
2022-10-16T16:49:05.414Z,101675.59
2022-10-16T16:51:37.003Z,101683.00
2022-10-16T16:54:13.014Z,101688.44
2022-10-16T16:56:43.519Z,101689.16
2022-10-16T16:59:14.954Z,101686.34
2022-10-16T17:01:42.572Z,101684.66
2022-10-16T17:04:11.257Z,101705.28
2022-10-16T17:06:38.912Z,101706.63
2022-10-16T17:09:07.329Z,101716.25
2022-10-16T17:11:35.138Z,101720.28
2022-10-16T17:14:05.790Z,101719.13
2022-10-16T17:16:38.229Z,101725.44
2022-10-16T17:19:08.286Z,101730.16
2022-10-16T17:21:36.327Z,101734.53
2022-10-16T17:24:04.780Z,101741.91
2022-10-16T17:26:32.832Z,101740.31
2022-10-16T17:29:02.184Z,101749.31
2022-10-16T17:31:35.208Z,101747.97
2022-10-16T17:34:05.153Z,101757.94
2022-10-16T17:36:36.382Z,101761.59
2022-10-16T17:39:07.072Z,101760.22
2022-10-16T17:41:35.626Z,101767.63
2022-10-16T17:44:05.450Z,101768.44
2022-10-16T17:46:36.962Z,101767.97
2022-10-16T17:49:07.566Z,101776.50
2022-10-16T17:51:34.915Z,101776.06
2022-10-16T17:54:02.447Z,101783.91
2022-10-16T17:56:30.418Z,101783.00
2022-10-16T17:59:00.847Z,101778.28
2022-10-16T18:01:31.914Z,101781.72
2022-10-16T18:04:10.609Z,101789.06
2022-10-16T18:06:38.216Z,101786.69
2022-10-16T18:09:07.999Z,101796.31
2022-10-16T18:11:35.830Z,101797.19
2022-10-16T18:14:04.222Z,101799.47
2022-10-16T18:16:32.900Z,101811.72
2022-10-16T18:19:02.974Z,101819.03
2022-10-16T18:21:31.224Z,101818.78
2022-10-16T18:23:59.953Z,101817.88
2022-10-16T18:26:30.258Z,101825.34
2022-10-16T18:28:58.257Z,101828.88
2022-10-16T18:31:26.845Z,101830.72
2022-10-16T18:33:55.751Z,101833.56
2022-10-16T18:36:32.459Z,101830.88
2022-10-16T18:39:04.484Z,101834.66
2022-10-16T18:41:32.733Z,101837.13
2022-10-16T18:44:00.101Z,101843.34
2022-10-16T18:46:28.847Z,101852.25
2022-10-16T18:49:00.513Z,101845.03
2022-10-16T18:51:31.032Z,101858.09
2022-10-16T18:54:00.564Z,101851.09
2022-10-16T18:56:30.453Z,101857.41
2022-10-16T18:59:00.976Z,101863.28
2022-10-16T19:01:30.942Z,101865.81
2022-10-16T19:04:04.627Z,101864.56
2022-10-16T19:06:35.465Z,101862.16
2022-10-16T19:09:03.886Z,101872.03
2022-10-16T19:11:32.089Z,101878.00
2022-10-16T19:13:59.818Z,101870.53
2022-10-16T19:16:30.594Z,101874.22
2022-10-16T19:19:00.643Z,101873.31
2022-10-16T19:21:29.677Z,101877.22
2022-10-16T19:24:02.186Z,101878.34
2022-10-16T19:26:31.543Z,101881.34
2022-10-16T19:29:00.879Z,101881.94
2022-10-16T19:31:30.101Z,101888.13
2022-10-16T19:33:59.897Z,101892.47
2022-10-16T19:36:30.514Z,101890.28
2022-10-16T19:39:04.105Z,101886.28
2022-10-16T19:41:32.566Z,101897.53
2022-10-16T19:44:05.412Z,101892.13
2022-10-16T19:46:33.846Z,101897.78
2022-10-16T19:49:04.044Z,101901.22
2022-10-16T19:51:31.926Z,101908.47
2022-10-16T19:54:02.108Z,101906.00
2022-10-16T19:56:34.200Z,101918.16
2022-10-16T19:59:02.218Z,101924.53
2022-10-16T20:01:32.267Z,101918.97
2022-10-16T20:04:00.789Z,101931.94
2022-10-16T20:06:28.546Z,101918.84
2022-10-16T20:08:58.236Z,101913.13
2022-10-16T20:11:29.180Z,101919.56
2022-10-16T20:13:56.942Z,101918.38
2022-10-16T20:16:25.536Z,101923.31
2022-10-16T20:18:53.599Z,101932.78
2022-10-16T20:21:26.625Z,101928.84
2022-10-16T20:23:54.546Z,101928.69
2022-10-16T20:26:24.427Z,101936.03
2022-10-16T20:28:55.505Z,101932.44
2022-10-16T20:31:26.477Z,101936.25
2022-10-16T20:33:57.229Z,101936.13
2022-10-16T20:36:26.910Z,101937.16
2022-10-16T20:38:54.459Z,101937.25
2022-10-16T20:41:22.760Z,101937.81
2022-10-16T20:43:55.066Z,101950.03
2022-10-16T20:46:24.747Z,101945.09
2022-10-16T20:48:53.663Z,101954.91
2022-10-16T20:51:26.955Z,101947.06
2022-10-16T20:53:57.082Z,101954.22
2022-10-16T20:56:26.744Z,101952.28
2022-10-16T20:58:54.313Z,101961.44
2022-10-16T21:01:25.434Z,101965.03
2022-10-16T21:03:58.510Z,101968.94
2022-10-16T21:06:26.711Z,101969.69
2022-10-16T21:08:54.506Z,101971.88
2022-10-16T21:11:27.466Z,101975.50
2022-10-16T21:13:59.529Z,101973.94
2022-10-16T21:16:27.057Z,101985.78
2022-10-16T21:18:55.172Z,101991.59
2022-10-16T21:21:29.659Z,101998.22
2022-10-16T21:23:59.026Z,102001.78
2022-10-16T21:26:27.318Z,101999.84
2022-10-16T21:28:59.995Z,102006.78
2022-10-16T21:31:28.226Z,102002.72
2022-10-16T21:33:56.595Z,102015.88
2022-10-16T21:36:28.723Z,102011.56
2022-10-16T21:38:56.522Z,102016.41
2022-10-16T21:41:26.698Z,102019.00
2022-10-16T21:43:55.558Z,102012.69
2022-10-16T21:46:25.880Z,102017.22
2022-10-16T21:48:54.426Z,102014.13
2022-10-16T21:51:29.015Z,102021.72
2022-10-16T21:53:56.284Z,102013.00
2022-10-16T21:56:23.690Z,102017.88
2022-10-16T21:58:51.870Z,102023.16
2022-10-16T22:01:23.819Z,102017.22
2022-10-16T22:03:51.227Z,102023.78
2022-10-16T22:08:55.874Z,102025.72
2022-10-16T22:11:36.618Z,102025.47
2022-10-16T22:14:10.547Z,102027.72
2022-10-16T22:16:38.662Z,102023.81
2022-10-16T22:19:09.128Z,102020.63
2022-10-16T22:21:38.444Z,102027.53
2022-10-16T22:24:06.923Z,102028.81
2022-10-16T22:26:35.691Z,102029.38
2022-10-16T22:29:04.536Z,102026.94
2022-10-16T22:31:31.974Z,102029.06
2022-10-16T22:34:01.753Z,102022.56
2022-10-16T22:36:29.362Z,102017.75
2022-10-16T22:38:57.554Z,102022.09
2022-10-16T22:41:25.317Z,102026.78
2022-10-16T22:43:53.001Z,102027.28
2022-10-16T22:46:26.033Z,102022.59
2022-10-16T22:48:56.378Z,102021.94
2022-10-16T22:51:25.867Z,102024.25
2022-10-16T22:53:53.388Z,102027.59
2022-10-16T22:56:22.163Z,102037.44
2022-10-16T22:58:50.071Z,102033.28
2022-10-16T23:01:30.875Z,102032.47
2022-10-16T23:04:01.245Z,102028.25
2022-10-16T23:06:30.035Z,102025.88
2022-10-16T23:08:59.522Z,102032.06
2022-10-16T23:11:28.706Z,102029.75
2022-10-16T23:13:56.352Z,102038.34
2022-10-16T23:16:26.202Z,102032.06
2022-10-16T23:18:53.985Z,102038.84
2022-10-16T23:21:23.933Z,102032.72
2022-10-16T23:23:52.672Z,102039.88
2022-10-16T23:26:23.503Z,102034.84
2022-10-16T23:28:50.952Z,102027.94
2022-10-16T23:31:19.482Z,102041.00
2022-10-16T23:33:46.877Z,102034.88
2022-10-16T23:36:17.157Z,102035.19
2022-10-16T23:38:45.026Z,102026.97
2022-10-16T23:41:13.070Z,102036.69
2022-10-16T23:43:41.047Z,102032.97
2022-10-16T23:46:11.761Z,102032.28
2022-10-16T23:48:39.760Z,102031.38
2022-10-16T23:51:08.478Z,102039.28
2022-10-16T23:53:36.145Z,102030.06
2022-10-16T23:56:03.963Z,102032.47
2022-10-16T23:58:31.425Z,102027.66
